sensor_id;sensor_type;location;lat;lon;timestamp;P1;durP1;ratioP1;P2;durP2;ratioP2
27899;SDS011;15243;50.726;7.080;2023-07-13T14:39:20;6.10;;;1.10;;
27899;SDS011;15243;50.726;7.080;2023-07-13T14:41:51;3.20;;;0.82;;
27899;SDS011;15243;50.726;7.080;2023-07-13T14:44:21;1.55;;;0.90;;
27899;SDS011;15243;50.726;7.080;2023-07-13T14:46:51;3.38;;;0.95;;
27899;SDS011;15243;50.726;7.080;2023-07-13T14:52:01;1.70;;;0.77;;
27899;SDS011;15243;50.726;7.080;2023-07-13T14:54:37;3.72;;;0.90;;
27899;SDS011;15243;50.726;7.080;2023-07-13T14:57:13;3.45;;;0.80;;
27899;SDS011;15243;50.726;7.080;2023-07-13T14:59:42;2.60;;;0.80;;
27899;SDS011;15243;50.726;7.080;2023-07-13T15:02:24;2.17;;;0.80;;
27899;SDS011;15243;50.726;7.080;2023-07-13T15:04:53;2.95;;;0.98;;
27899;SDS011;15243;50.726;7.080;2023-07-13T15:07:21;2.92;;;0.88;;
27899;SDS011;15243;50.726;7.080;2023-07-13T15:09:49;1.98;;;0.88;;
27899;SDS011;15243;50.726;7.080;2023-07-13T15:12:19;1.80;;;0.75;;
27899;SDS011;15243;50.726;7.080;2023-07-13T15:14:48;2.20;;;0.80;;
27899;SDS011;15243;50.726;7.080;2023-07-13T15:17:23;2.80;;;0.95;;
27899;SDS011;15243;50.726;7.080;2023-07-13T15:19:54;2.95;;;1.00;;
27899;SDS011;15243;50.726;7.080;2023-07-13T15:22:22;4.35;;;0.80;;
27899;SDS011;15243;50.726;7.080;2023-07-13T15:24:49;1.48;;;0.55;;
27899;SDS011;15243;50.726;7.080;2023-07-13T15:27:16;2.55;;;0.80;;
27899;SDS011;15243;50.726;7.080;2023-07-13T15:29:43;2.67;;;0.98;;
27899;SDS011;15243;50.726;7.080;2023-07-13T15:32:14;2.13;;;0.77;;
27899;SDS011;15243;50.726;7.080;2023-07-13T15:34:41;2.63;;;1.00;;
27899;SDS011;15243;50.726;7.080;2023-07-13T15:37:11;4.30;;;0.90;;
27899;SDS011;15243;50.726;7.080;2023-07-13T15:39:47;4.72;;;1.08;;
27899;SDS011;15243;50.726;7.080;2023-07-13T15:42:15;3.58;;;1.15;;
27899;SDS011;15243;50.726;7.080;2023-07-13T15:44:43;2.58;;;0.65;;
27899;SDS011;15243;50.726;7.080;2023-07-13T15:47:11;2.13;;;0.85;;
27899;SDS011;15243;50.726;7.080;2023-07-13T15:49:38;2.47;;;0.85;;
27899;SDS011;15243;50.726;7.080;2023-07-13T15:52:18;4.55;;;1.30;;
27899;SDS011;15243;50.726;7.080;2023-07-13T15:54:48;3.13;;;1.13;;
27899;SDS011;15243;50.726;7.080;2023-07-13T15:57:16;3.95;;;1.20;;
27899;SDS011;15243;50.726;7.080;2023-07-13T15:59:44;6.60;;;1.25;;
27899;SDS011;15243;50.726;7.080;2023-07-13T16:02:12;5.75;;;1.35;;
27899;SDS011;15243;50.726;7.080;2023-07-13T16:04:42;2.85;;;1.10;;
27899;SDS011;15243;50.726;7.080;2023-07-13T16:07:13;2.55;;;1.00;;
27899;SDS011;15243;50.726;7.080;2023-07-13T16:09:44;3.88;;;1.33;;
27899;SDS011;15243;50.726;7.080;2023-07-13T16:12:13;4.70;;;1.02;;
27899;SDS011;15243;50.726;7.080;2023-07-13T16:14:41;2.38;;;1.13;;
27899;SDS011;15243;50.726;7.080;2023-07-13T16:17:09;4.05;;;1.05;;
27899;SDS011;15243;50.726;7.080;2023-07-13T16:19:37;3.45;;;1.15;;
27899;SDS011;15243;50.726;7.080;2023-07-13T16:22:05;2.78;;;1.10;;
27899;SDS011;15243;50.726;7.080;2023-07-13T16:24:37;3.63;;;1.15;;
27899;SDS011;15243;50.726;7.080;2023-07-13T16:27:04;5.03;;;1.33;;
27899;SDS011;15243;50.726;7.080;2023-07-13T16:29:33;3.30;;;1.23;;
27899;SDS011;15243;50.726;7.080;2023-07-13T16:34:38;5.43;;;1.10;;
27899;SDS011;15243;50.726;7.080;2023-07-13T16:37:14;5.10;;;1.20;;
27899;SDS011;15243;50.726;7.080;2023-07-13T16:39:46;5.30;;;1.65;;
27899;SDS011;15243;50.726;7.080;2023-07-13T16:42:15;5.90;;;1.70;;
27899;SDS011;15243;50.726;7.080;2023-07-13T16:44:42;5.05;;;1.38;;
27899;SDS011;15243;50.726;7.080;2023-07-13T16:47:13;11.60;;;1.65;;
27899;SDS011;15243;50.726;7.080;2023-07-13T16:49:42;7.93;;;2.40;;
27899;SDS011;15243;50.726;7.080;2023-07-13T16:52:13;8.80;;;1.58;;
27899;SDS011;15243;50.726;7.080;2023-07-13T16:54:46;4.75;;;1.75;;
27899;SDS011;15243;50.726;7.080;2023-07-13T16:57:16;7.75;;;1.48;;
27899;SDS011;15243;50.726;7.080;2023-07-13T16:59:55;5.57;;;1.55;;
27899;SDS011;15243;50.726;7.080;2023-07-13T17:04:53;8.73;;;1.65;;
27899;SDS011;15243;50.726;7.080;2023-07-13T17:07:21;5.97;;;1.73;;
27899;SDS011;15243;50.726;7.080;2023-07-13T17:09:50;6.22;;;1.85;;
27899;SDS011;15243;50.726;7.080;2023-07-13T17:12:18;5.25;;;2.00;;
27899;SDS011;15243;50.726;7.080;2023-07-13T17:14:48;5.57;;;1.25;;
27899;SDS011;15243;50.726;7.080;2023-07-13T17:17:16;4.78;;;1.60;;
27899;SDS011;15243;50.726;7.080;2023-07-13T17:19:45;7.50;;;1.80;;
27899;SDS011;15243;50.726;7.080;2023-07-13T17:22:13;8.20;;;1.48;;
27899;SDS011;15243;50.726;7.080;2023-07-13T17:24:45;4.65;;;1.33;;
27899;SDS011;15243;50.726;7.080;2023-07-13T17:27:15;7.25;;;1.45;;
27899;SDS011;15243;50.726;7.080;2023-07-13T17:29:42;6.22;;;1.80;;
27899;SDS011;15243;50.726;7.080;2023-07-13T17:32:15;6.20;;;2.00;;
27899;SDS011;15243;50.726;7.080;2023-07-13T17:34:45;3.35;;;1.40;;
27899;SDS011;15243;50.726;7.080;2023-07-13T17:37:13;5.40;;;1.50;;
27899;SDS011;15243;50.726;7.080;2023-07-13T17:39:43;5.68;;;2.13;;
27899;SDS011;15243;50.726;7.080;2023-07-13T17:42:11;7.35;;;1.70;;
27899;SDS011;15243;50.726;7.080;2023-07-13T17:44:39;5.68;;;1.70;;
27899;SDS011;15243;50.726;7.080;2023-07-13T17:47:25;6.30;;;1.60;;
27899;SDS011;15243;50.726;7.080;2023-07-13T17:49:53;4.25;;;1.52;;
27899;SDS011;15243;50.726;7.080;2023-07-13T17:52:21;9.07;;;1.15;;
27899;SDS011;15243;50.726;7.080;2023-07-13T17:54:56;5.57;;;1.50;;
27899;SDS011;15243;50.726;7.080;2023-07-13T17:57:27;7.20;;;2.00;;
27899;SDS011;15243;50.726;7.080;2023-07-13T17:59:54;5.30;;;1.67;;
27899;SDS011;15243;50.726;7.080;2023-07-13T18:02:22;7.72;;;1.40;;
27899;SDS011;15243;50.726;7.080;2023-07-13T18:04:50;7.38;;;1.92;;
27899;SDS011;15243;50.726;7.080;2023-07-13T18:07:17;5.43;;;1.40;;
27899;SDS011;15243;50.726;7.080;2023-07-13T18:09:48;7.18;;;1.50;;
27899;SDS011;15243;50.726;7.080;2023-07-13T18:12:15;9.23;;;2.40;;
27899;SDS011;15243;50.726;7.080;2023-07-13T18:14:42;5.00;;;1.50;;
27899;SDS011;15243;50.726;7.080;2023-07-13T18:17:10;6.95;;;1.38;;
27899;SDS011;15243;50.726;7.080;2023-07-13T18:19:41;2.92;;;1.42;;
27899;SDS011;15243;50.726;7.080;2023-07-13T18:22:12;7.90;;;1.60;;
27899;SDS011;15243;50.726;7.080;2023-07-13T18:24:41;6.55;;;1.30;;
27899;SDS011;15243;50.726;7.080;2023-07-13T18:27:08;6.72;;;1.50;;
27899;SDS011;15243;50.726;7.080;2023-07-13T18:29:36;4.47;;;1.58;;
27899;SDS011;15243;50.726;7.080;2023-07-13T18:32:04;3.97;;;1.30;;
27899;SDS011;15243;50.726;7.080;2023-07-13T18:34:38;7.18;;;1.50;;
27899;SDS011;15243;50.726;7.080;2023-07-13T18:37:18;4.20;;;1.50;;
27899;SDS011;15243;50.726;7.080;2023-07-13T18:39:50;5.40;;;1.45;;
27899;SDS011;15243;50.726;7.080;2023-07-13T18:42:19;6.03;;;1.40;;
27899;SDS011;15243;50.726;7.080;2023-07-13T18:44:47;2.35;;;1.15;;
27899;SDS011;15243;50.726;7.080;2023-07-13T18:47:17;6.75;;;1.60;;
27899;SDS011;15243;50.726;7.080;2023-07-13T18:49:49;5.63;;;1.35;;
27899;SDS011;15243;50.726;7.080;2023-07-13T18:52:18;6.47;;;1.60;;
27899;SDS011;15243;50.726;7.080;2023-07-13T18:54:47;8.70;;;1.30;;
27899;SDS011;15243;50.726;7.080;2023-07-13T18:57:14;6.53;;;1.50;;
27899;SDS011;15243;50.726;7.080;2023-07-13T18:59:42;4.78;;;1.70;;
27899;SDS011;15243;50.726;7.080;2023-07-13T19:02:10;8.57;;;2.03;;
27899;SDS011;15243;50.726;7.080;2023-07-13T19:04:39;8.35;;;1.83;;
27899;SDS011;15243;50.726;7.080;2023-07-13T19:07:08;6.68;;;1.83;;
27899;SDS011;15243;50.726;7.080;2023-07-13T19:09:36;9.55;;;2.22;;
27899;SDS011;15243;50.726;7.080;2023-07-13T19:12:29;11.52;;;2.03;;
27899;SDS011;15243;50.726;7.080;2023-07-13T19:14:55;8.48;;;2.05;;
27899;SDS011;15243;50.726;7.080;2023-07-13T19:17:22;6.38;;;1.88;;
27899;SDS011;15243;50.726;7.080;2023-07-13T19:19:49;6.53;;;1.88;;
27899;SDS011;15243;50.726;7.080;2023-07-13T19:22:18;5.07;;;1.52;;
27899;SDS011;15243;50.726;7.080;2023-07-13T19:24:46;3.38;;;1.52;;
27899;SDS011;15243;50.726;7.080;2023-07-13T19:27:15;6.20;;;1.70;;
27899;SDS011;15243;50.726;7.080;2023-07-13T19:29:42;4.15;;;1.50;;
27899;SDS011;15243;50.726;7.080;2023-07-13T19:32:10;5.05;;;1.67;;
27899;SDS011;15243;50.726;7.080;2023-07-13T19:34:37;3.75;;;1.35;;
27899;SDS011;15243;50.726;7.080;2023-07-13T19:37:26;6.57;;;1.63;;
27899;SDS011;15243;50.726;7.080;2023-07-13T19:39:52;7.00;;;1.60;;
27899;SDS011;15243;50.726;7.080;2023-07-13T19:42:22;7.97;;;1.77;;
27899;SDS011;15243;50.726;7.080;2023-07-13T19:44:53;4.70;;;1.50;;
27899;SDS011;15243;50.726;7.080;2023-07-13T19:47:21;6.68;;;1.65;;
27899;SDS011;15243;50.726;7.080;2023-07-13T19:49:49;6.85;;;1.40;;
27899;SDS011;15243;50.726;7.080;2023-07-13T19:52:22;6.22;;;2.00;;
27899;SDS011;15243;50.726;7.080;2023-07-13T19:54:55;6.90;;;1.95;;
27899;SDS011;15243;50.726;7.080;2023-07-13T19:57:24;6.65;;;2.03;;
27899;SDS011;15243;50.726;7.080;2023-07-13T19:59:52;4.53;;;1.45;;
27899;SDS011;15243;50.726;7.080;2023-07-13T20:02:21;9.93;;;1.58;;
27899;SDS011;15243;50.726;7.080;2023-07-13T20:04:50;4.38;;;1.52;;
27899;SDS011;15243;50.726;7.080;2023-07-13T20:07:18;5.95;;;1.95;;
27899;SDS011;15243;50.726;7.080;2023-07-13T20:09:48;5.82;;;1.45;;
27899;SDS011;15243;50.726;7.080;2023-07-13T20:12:17;3.85;;;1.60;;
27899;SDS011;15243;50.726;7.080;2023-07-13T20:14:49;7.07;;;1.77;;
27899;SDS011;15243;50.726;7.080;2023-07-13T20:17:20;2.95;;;1.23;;
27899;SDS011;15243;50.726;7.080;2023-07-13T20:19:53;5.68;;;1.75;;
27899;SDS011;15243;50.726;7.080;2023-07-13T20:22:24;5.15;;;1.33;;
27899;SDS011;15243;50.726;7.080;2023-07-13T20:24:52;8.50;;;2.13;;
27899;SDS011;15243;50.726;7.080;2023-07-13T20:27:19;7.30;;;2.20;;
27899;SDS011;15243;50.726;7.080;2023-07-13T20:29:46;6.40;;;1.50;;
27899;SDS011;15243;50.726;7.080;2023-07-13T20:32:13;3.72;;;1.58;;
27899;SDS011;15243;50.726;7.080;2023-07-13T20:34:42;3.28;;;1.58;;
27899;SDS011;15243;50.726;7.080;2023-07-13T20:37:18;3.95;;;1.60;;
27899;SDS011;15243;50.726;7.080;2023-07-13T20:39:46;6.25;;;2.03;;
27899;SDS011;15243;50.726;7.080;2023-07-13T20:42:13;4.85;;;1.83;;
27899;SDS011;15243;50.726;7.080;2023-07-13T20:44:39;6.95;;;1.92;;
27899;SDS011;15243;50.726;7.080;2023-07-13T20:47:08;3.72;;;1.88;;
27899;SDS011;15243;50.726;7.080;2023-07-13T20:49:39;6.63;;;1.98;;
27899;SDS011;15243;50.726;7.080;2023-07-13T20:52:12;4.18;;;1.65;;
27899;SDS011;15243;50.726;7.080;2023-07-13T20:54:39;3.17;;;1.60;;
27899;SDS011;15243;50.726;7.080;2023-07-13T20:57:11;6.60;;;2.15;;
27899;SDS011;15243;50.726;7.080;2023-07-13T20:59:39;4.82;;;2.28;;
27899;SDS011;15243;50.726;7.080;2023-07-13T21:02:27;7.32;;;1.88;;
27899;SDS011;15243;50.726;7.080;2023-07-13T21:04:57;4.78;;;1.83;;
27899;SDS011;15243;50.726;7.080;2023-07-13T21:07:40;7.82;;;1.92;;
27899;SDS011;15243;50.726;7.080;2023-07-13T21:10:15;3.75;;;1.90;;
27899;SDS011;15243;50.726;7.080;2023-07-13T21:12:44;5.53;;;2.28;;
27899;SDS011;15243;50.726;7.080;2023-07-13T21:15:15;5.50;;;1.80;;
27899;SDS011;15243;50.726;7.080;2023-07-13T21:17:44;6.57;;;2.00;;
27899;SDS011;15243;50.726;7.080;2023-07-13T21:20:17;7.47;;;2.40;;
27899;SDS011;15243;50.726;7.080;2023-07-13T21:22:46;5.43;;;2.15;;
27899;SDS011;15243;50.726;7.080;2023-07-13T21:25:18;5.15;;;1.77;;
27899;SDS011;15243;50.726;7.080;2023-07-13T21:27:54;5.43;;;1.90;;
27899;SDS011;15243;50.726;7.080;2023-07-13T21:30:24;6.10;;;1.90;;
27899;SDS011;15243;50.726;7.080;2023-07-13T21:32:54;5.45;;;2.17;;
27899;SDS011;15243;50.726;7.080;2023-07-13T21:35:27;5.30;;;1.90;;
27899;SDS011;15243;50.726;7.080;2023-07-13T21:38:00;8.02;;;2.35;;
27899;SDS011;15243;50.726;7.080;2023-07-13T21:40:29;4.63;;;1.85;;
27899;SDS011;15243;50.726;7.080;2023-07-13T21:42:58;7.38;;;1.80;;
27899;SDS011;15243;50.726;7.080;2023-07-13T21:45:26;5.55;;;2.05;;
27899;SDS011;15243;50.726;7.080;2023-07-13T21:47:54;6.90;;;2.50;;
27899;SDS011;15243;50.726;7.080;2023-07-13T21:50:24;4.45;;;1.98;;
27899;SDS011;15243;50.726;7.080;2023-07-13T21:53:16;6.03;;;2.25;;
27899;SDS011;15243;50.726;7.080;2023-07-13T21:55:58;4.78;;;2.25;;
27899;SDS011;15243;50.726;7.080;2023-07-13T21:58:31;7.80;;;2.85;;
27899;SDS011;15243;50.726;7.080;2023-07-13T22:01:00;5.63;;;2.47;;
27899;SDS011;15243;50.726;7.080;2023-07-13T22:03:37;5.85;;;2.20;;
27899;SDS011;15243;50.726;7.080;2023-07-13T22:06:05;7.15;;;2.40;;
27899;SDS011;15243;50.726;7.080;2023-07-13T22:08:36;7.15;;;2.38;;
27899;SDS011;15243;50.726;7.080;2023-07-13T22:11:08;5.97;;;2.35;;
27899;SDS011;15243;50.726;7.080;2023-07-13T22:13:40;8.43;;;2.35;;
27899;SDS011;15243;50.726;7.080;2023-07-13T22:16:13;4.28;;;2.40;;
27899;SDS011;15243;50.726;7.080;2023-07-13T22:18:46;5.82;;;2.70;;
27899;SDS011;15243;50.726;7.080;2023-07-13T22:21:15;5.68;;;2.70;;
27899;SDS011;15243;50.726;7.080;2023-07-13T22:23:44;5.53;;;2.25;;
27899;SDS011;15243;50.726;7.080;2023-07-13T22:26:16;7.72;;;2.72;;
27899;SDS011;15243;50.726;7.080;2023-07-13T22:29:01;4.13;;;2.33;;
27899;SDS011;15243;50.726;7.080;2023-07-13T22:31:36;9.10;;;2.85;;
27899;SDS011;15243;50.726;7.080;2023-07-13T22:34:03;7.22;;;2.13;;
27899;SDS011;15243;50.726;7.080;2023-07-13T22:36:31;5.15;;;2.10;;
27899;SDS011;15243;50.726;7.080;2023-07-13T22:38:58;5.57;;;2.10;;
27899;SDS011;15243;50.726;7.080;2023-07-13T22:41:25;7.97;;;2.47;;
27899;SDS011;15243;50.726;7.080;2023-07-13T22:43:52;4.88;;;2.35;;
27899;SDS011;15243;50.726;7.080;2023-07-13T22:46:23;6.18;;;2.70;;
27899;SDS011;15243;50.726;7.080;2023-07-13T22:51:37;7.60;;;2.45;;
27899;SDS011;15243;50.726;7.080;2023-07-13T22:54:08;9.10;;;2.63;;
27899;SDS011;15243;50.726;7.080;2023-07-13T22:56:36;7.78;;;2.63;;
27899;SDS011;15243;50.726;7.080;2023-07-13T22:59:03;5.80;;;2.35;;
27899;SDS011;15243;50.726;7.080;2023-07-13T23:01:32;8.60;;;2.75;;
27899;SDS011;15243;50.726;7.080;2023-07-13T23:04:01;8.13;;;2.55;;
27899;SDS011;15243;50.726;7.080;2023-07-13T23:06:35;4.70;;;2.38;;
27899;SDS011;15243;50.726;7.080;2023-07-13T23:09:05;5.82;;;2.30;;
27899;SDS011;15243;50.726;7.080;2023-07-13T23:11:34;7.43;;;2.17;;
27899;SDS011;15243;50.726;7.080;2023-07-13T23:14:01;5.65;;;2.67;;
27899;SDS011;15243;50.726;7.080;2023-07-13T23:16:30;5.35;;;2.28;;
27899;SDS011;15243;50.726;7.080;2023-07-13T23:18:58;4.90;;;2.65;;
27899;SDS011;15243;50.726;7.080;2023-07-13T23:21:26;6.47;;;2.08;;
27899;SDS011;15243;50.726;7.080;2023-07-13T23:23:54;7.85;;;2.47;;
27899;SDS011;15243;50.726;7.080;2023-07-13T23:26:26;6.88;;;2.17;;
27899;SDS011;15243;50.726;7.080;2023-07-13T23:28:53;5.05;;;2.25;;
27899;SDS011;15243;50.726;7.080;2023-07-13T23:33:53;6.53;;;2.10;;
27899;SDS011;15243;50.726;7.080;2023-07-13T23:36:21;7.30;;;2.75;;
27899;SDS011;15243;50.726;7.080;2023-07-13T23:38:49;4.90;;;2.50;;
27899;SDS011;15243;50.726;7.080;2023-07-13T23:41:20;6.15;;;2.28;;
27899;SDS011;15243;50.726;7.080;2023-07-13T23:49:00;5.43;;;2.63;;
27899;SDS011;15243;50.726;7.080;2023-07-13T23:51:37;8.57;;;2.75;;
27899;SDS011;15243;50.726;7.080;2023-07-13T23:54:08;8.35;;;2.78;;
27899;SDS011;15243;50.726;7.080;2023-07-13T23:56:39;5.80;;;2.90;;
27899;SDS011;15243;50.726;7.080;2023-07-13T23:59:07;7.90;;;3.10;;
